createdAt,value
2019-03-29T00:00:34.358Z,14.40
2019-03-29T00:01:34.345Z,14.70
2019-03-29T00:02:34.351Z,14.20
2019-03-29T00:03:35.005Z,14.40
2019-03-29T00:04:34.304Z,13.90
2019-03-29T00:05:34.300Z,14.40
2019-03-29T00:06:34.284Z,14.30
2019-03-29T00:07:39.796Z,14.30
2019-03-29T00:08:34.261Z,14.70
2019-03-29T00:09:34.248Z,14.80
2019-03-29T00:10:34.245Z,13.80
2019-03-29T00:11:34.245Z,14.20
2019-03-29T00:12:34.238Z,13.60
2019-03-29T00:13:34.219Z,13.10
2019-03-29T00:14:34.202Z,13.40
2019-03-29T00:15:34.319Z,14.00
2019-03-29T00:16:34.195Z,13.70
2019-03-29T00:17:34.190Z,13.90
2019-03-29T00:18:34.157Z,13.90
2019-03-29T00:19:34.145Z,13.10
2019-03-29T00:20:34.138Z,14.00
2019-03-29T00:21:34.127Z,13.70
2019-03-29T00:22:34.133Z,14.90
2019-03-29T00:23:34.123Z,14.20
2019-03-29T00:24:34.079Z,13.80
2019-03-29T00:25:34.074Z,13.80
2019-03-29T00:26:34.064Z,13.80
2019-03-29T00:27:34.054Z,14.50
2019-03-29T00:28:34.070Z,15.20
2019-03-29T00:29:34.033Z,14.20
2019-03-29T00:30:34.020Z,14.10
2019-03-29T00:31:34.224Z,14.60
2019-03-29T00:32:33.998Z,14.50
2019-03-29T00:33:34.002Z,15.50
2019-03-29T00:34:33.979Z,14.70
2019-03-29T00:35:34.171Z,16.20
2019-03-29T00:36:33.959Z,14.60
2019-03-29T00:37:33.944Z,15.40
2019-03-29T00:38:33.954Z,15.80
2019-03-29T00:39:33.921Z,15.10
2019-03-29T00:40:33.912Z,14.50
2019-03-29T00:41:33.896Z,15.20
2019-03-29T00:42:33.889Z,15.00
2019-03-29T00:43:34.837Z,15.70
2019-03-29T00:44:33.861Z,15.40
2019-03-29T00:45:33.871Z,15.30
2019-03-29T00:46:33.846Z,15.50
2019-03-29T00:47:33.832Z,15.90
2019-03-29T00:48:35.646Z,16.00
2019-03-29T00:49:33.824Z,15.30
2019-03-29T00:50:33.808Z,16.20
2019-03-29T00:51:33.808Z,15.30
2019-03-29T00:52:33.788Z,16.20
2019-03-29T00:53:33.782Z,15.80
2019-03-29T00:54:33.762Z,16.30
2019-03-29T00:55:33.751Z,16.90
2019-03-29T00:56:33.735Z,16.30
2019-03-29T00:57:33.730Z,15.40
2019-03-29T00:58:33.752Z,16.00
2019-03-29T00:59:33.749Z,15.80
2019-03-29T01:00:33.961Z,16.00
2019-03-29T01:01:33.689Z,16.10
2019-03-29T01:02:33.675Z,15.80
2019-03-29T01:04:43.191Z,15.70
2019-03-29T01:05:44.149Z,16.10
2019-03-29T01:06:44.135Z,16.70
2019-03-29T01:07:44.121Z,16.30
2019-03-29T01:08:44.141Z,16.80
2019-03-29T01:09:44.116Z,16.70
2019-03-29T01:10:44.105Z,15.90
2019-03-29T01:11:44.109Z,16.70
2019-03-29T01:12:44.078Z,16.20
2019-03-29T01:13:44.086Z,16.50
2019-03-29T01:14:44.065Z,16.90
2019-03-29T01:15:44.045Z,17.40
2019-03-29T01:16:44.043Z,17.70
2019-03-29T01:17:44.018Z,17.70
2019-03-29T01:18:44.029Z,17.30
2019-03-29T01:19:44.023Z,17.60
2019-03-29T01:20:43.982Z,17.50
2019-03-29T01:21:43.992Z,17.30
2019-03-29T01:22:43.992Z,17.70
2019-03-29T01:23:43.969Z,16.80
2019-03-29T01:24:43.946Z,17.30
2019-03-29T01:25:43.936Z,17.50
2019-03-29T01:26:43.927Z,17.20
2019-03-29T01:27:43.915Z,18.50
2019-03-29T01:28:43.927Z,18.60
2019-03-29T01:29:43.897Z,18.60
2019-03-29T01:30:43.871Z,17.80
2019-03-29T01:31:43.868Z,18.30
2019-03-29T01:32:43.863Z,19.20
2019-03-29T01:33:43.888Z,18.40
2019-03-29T01:34:43.834Z,18.80
2019-03-29T01:35:43.833Z,17.60
2019-03-29T01:36:43.818Z,18.60
2019-03-29T01:37:43.797Z,19.20
2019-03-29T01:38:43.814Z,18.60
2019-03-29T01:39:43.777Z,18.60
2019-03-29T01:40:43.762Z,18.70
2019-03-29T01:41:43.759Z,19.10
2019-03-29T01:42:44.923Z,19.10
2019-03-29T01:43:43.764Z,19.20
2019-03-29T01:44:43.719Z,18.80
2019-03-29T01:45:43.711Z,19.50
2019-03-29T01:46:43.696Z,18.80
2019-03-29T01:47:43.693Z,18.90
2019-03-29T01:48:43.744Z,18.70
2019-03-29T01:49:43.668Z,18.50
2019-03-29T01:50:43.659Z,18.80
2019-03-29T01:51:43.652Z,18.80
2019-03-29T01:52:43.640Z,19.00
2019-03-29T01:53:43.648Z,17.80
2019-03-29T01:54:43.614Z,18.90
2019-03-29T01:55:43.604Z,18.20
2019-03-29T01:56:43.592Z,18.90
2019-03-29T01:57:43.588Z,17.90
2019-03-29T01:58:43.603Z,18.00
2019-03-29T01:59:43.571Z,17.60
2019-03-29T02:00:43.551Z,17.10
2019-03-29T02:01:43.553Z,17.70
2019-03-29T02:02:43.541Z,16.90
2019-03-29T02:03:43.542Z,17.40
2019-03-29T02:04:43.518Z,16.70
2019-03-29T02:05:43.491Z,16.50
2019-03-29T02:06:43.491Z,16.50
2019-03-29T02:07:43.491Z,16.50
2019-03-29T02:08:43.481Z,16.60
2019-03-29T02:09:43.451Z,16.70
2019-03-29T02:10:43.439Z,17.30
2019-03-29T02:11:43.430Z,16.20
2019-03-29T02:12:43.416Z,17.00
2019-03-29T02:13:43.428Z,17.20
2019-03-29T02:14:43.416Z,16.80
2019-03-29T02:15:43.400Z,17.20
2019-03-29T02:16:43.371Z,17.60
2019-03-29T02:17:43.395Z,17.40
2019-03-29T02:18:43.392Z,17.30
2019-03-29T02:19:43.348Z,15.60
2019-03-29T02:20:43.349Z,16.40
2019-03-29T02:21:43.329Z,16.10
2019-03-29T02:22:43.319Z,15.90
2019-03-29T02:23:43.335Z,14.90
2019-03-29T02:24:43.295Z,15.70
2019-03-29T02:25:43.367Z,15.30
2019-03-29T02:26:43.278Z,15.40
2019-03-29T02:27:43.270Z,16.00
2019-03-29T02:28:43.256Z,14.90
2019-03-29T02:29:43.246Z,15.20
2019-03-29T02:30:43.260Z,14.90
2019-03-29T02:31:43.254Z,14.80
2019-03-29T02:32:43.235Z,14.60
2019-03-29T02:33:43.195Z,15.10
2019-03-29T02:34:43.894Z,15.30
2019-03-29T02:35:43.175Z,15.10
2019-03-29T02:36:43.201Z,15.40
2019-03-29T02:37:43.165Z,15.10
2019-03-29T02:38:55.242Z,15.10
2019-03-29T02:39:43.130Z,14.90
2019-03-29T02:40:43.128Z,15.10
2019-03-29T02:41:43.107Z,14.70
2019-03-29T02:42:43.363Z,15.40
2019-03-29T02:43:43.102Z,14.70
2019-03-29T02:44:43.088Z,15.60
2019-03-29T02:45:43.103Z,16.10
2019-03-29T02:46:43.057Z,15.50
2019-03-29T02:47:43.046Z,16.00
2019-03-29T02:48:44.569Z,15.50
2019-03-29T02:49:43.021Z,15.80
2019-03-29T02:50:43.025Z,16.20
2019-03-29T02:51:43.016Z,15.90
2019-03-29T02:52:42.988Z,16.50
2019-03-29T02:53:42.975Z,15.90
2019-03-29T02:54:42.968Z,16.50
2019-03-29T02:55:42.973Z,15.60
2019-03-29T02:56:42.998Z,16.50
2019-03-29T02:57:42.949Z,15.60
2019-03-29T02:58:42.924Z,15.50
2019-03-29T02:59:42.916Z,15.80
2019-03-29T03:00:42.979Z,15.60
2019-03-29T03:01:42.921Z,15.50
2019-03-29T03:02:42.956Z,15.30
2019-03-29T03:03:42.867Z,15.00
2019-03-29T03:05:52.062Z,15.00
2019-03-29T03:06:53.035Z,15.00
2019-03-29T03:07:53.055Z,15.70
2019-03-29T03:08:53.010Z,16.40
2019-03-29T03:09:53.009Z,15.20
2019-03-29T03:10:53.027Z,15.60
2019-03-29T03:11:52.992Z,15.00
2019-03-29T03:12:52.977Z,15.40
2019-03-29T03:13:52.955Z,15.20
2019-03-29T03:14:52.972Z,15.70
2019-03-29T03:15:52.972Z,15.90
2019-03-29T03:16:52.939Z,15.40
2019-03-29T03:17:52.954Z,15.20
2019-03-29T03:18:52.913Z,15.80
2019-03-29T03:19:52.985Z,15.80
2019-03-29T03:20:52.887Z,15.70
2019-03-29T03:21:52.889Z,16.60
2019-03-29T03:22:52.893Z,16.40
2019-03-29T03:23:52.865Z,16.30
2019-03-29T03:24:52.852Z,15.80
2019-03-29T03:25:52.860Z,16.50
2019-03-29T03:26:52.839Z,15.40
2019-03-29T03:27:52.820Z,17.10
2019-03-29T03:28:52.802Z,15.90
2019-03-29T03:29:52.815Z,16.30
2019-03-29T03:30:52.805Z,16.70
2019-03-29T03:31:52.785Z,16.60
2019-03-29T03:32:52.798Z,16.60
2019-03-29T03:33:52.756Z,16.30
2019-03-29T03:34:52.752Z,15.70
2019-03-29T03:35:52.742Z,16.20
2019-03-29T03:36:52.722Z,15.90
2019-03-29T03:37:52.742Z,16.20
2019-03-29T03:38:52.715Z,16.80
2019-03-29T03:39:52.697Z,16.70
2019-03-29T03:40:52.699Z,16.80
2019-03-29T03:41:52.669Z,15.50
2019-03-29T03:42:52.655Z,16.10
2019-03-29T03:43:52.642Z,16.80
2019-03-29T03:44:52.637Z,16.60
2019-03-29T03:45:52.635Z,16.80
2019-03-29T03:46:52.617Z,16.90
2019-03-29T03:47:52.598Z,16.50
2019-03-29T03:48:52.592Z,16.00
2019-03-29T03:49:52.594Z,16.40
2019-03-29T03:50:52.591Z,16.80
2019-03-29T03:51:52.573Z,16.40
2019-03-29T03:52:52.560Z,16.80
2019-03-29T03:53:52.533Z,15.80
2019-03-29T03:54:52.546Z,16.40
2019-03-29T03:55:52.538Z,16.90
2019-03-29T03:56:52.501Z,17.50
2019-03-29T03:57:52.483Z,16.50
2019-03-29T03:58:52.481Z,16.50
2019-03-29T03:59:52.474Z,16.30
2019-03-29T04:00:52.514Z,16.30
2019-03-29T04:01:52.462Z,16.50
2019-03-29T04:02:53.307Z,17.00
2019-03-29T04:03:52.439Z,17.80
2019-03-29T04:04:52.438Z,16.60
2019-03-29T04:05:52.440Z,17.00
2019-03-29T04:06:52.390Z,17.40
2019-03-29T04:07:52.392Z,16.90
2019-03-29T04:08:52.376Z,17.00
2019-03-29T04:09:52.373Z,16.90
2019-03-29T04:10:52.391Z,17.20
2019-03-29T04:11:52.358Z,17.40
2019-03-29T04:12:52.333Z,16.50
2019-03-29T04:13:52.336Z,17.20
2019-03-29T04:14:52.314Z,16.90
2019-03-29T04:15:52.331Z,17.30
2019-03-29T04:16:52.287Z,16.60
2019-03-29T04:17:52.311Z,17.70
2019-03-29T04:18:52.259Z,17.10
2019-03-29T04:19:52.259Z,16.70
2019-03-29T04:20:52.254Z,16.90
2019-03-29T04:21:52.248Z,17.40
2019-03-29T04:22:52.259Z,17.00
2019-03-29T04:23:52.222Z,17.50
2019-03-29T04:24:52.199Z,17.60
2019-03-29T04:25:52.810Z,16.80
2019-03-29T04:26:52.190Z,16.50
2019-03-29T04:27:52.194Z,17.40
2019-03-29T04:29:04.401Z,17.30
2019-03-29T04:29:52.151Z,17.40
2019-03-29T04:30:52.165Z,16.50
2019-03-29T04:31:52.129Z,16.20
2019-03-29T04:32:52.151Z,17.10
2019-03-29T04:33:52.115Z,17.00
2019-03-29T04:34:52.099Z,17.60
2019-03-29T04:35:52.079Z,17.00
2019-03-29T04:36:52.073Z,17.00
2019-03-29T04:37:52.104Z,16.70
2019-03-29T04:38:52.061Z,16.30
2019-03-29T04:40:07.999Z,17.50
2019-03-29T04:40:52.031Z,16.90
2019-03-29T04:41:52.019Z,17.30
2019-03-29T04:42:52.041Z,17.10
2019-03-29T04:43:52.000Z,16.70
2019-03-29T04:44:52.002Z,16.90
2019-03-29T04:45:52.005Z,17.00
2019-03-29T04:46:51.976Z,17.20
2019-03-29T04:47:51.958Z,17.50
2019-03-29T04:48:51.941Z,16.60
2019-03-29T04:49:51.927Z,16.80
2019-03-29T04:50:52.024Z,17.30
2019-03-29T04:51:51.925Z,16.90
2019-03-29T04:52:51.999Z,17.00
2019-03-29T04:53:51.899Z,17.60
2019-03-29T04:54:51.883Z,18.00
2019-03-29T04:55:51.867Z,17.60
2019-03-29T04:56:51.865Z,17.90
2019-03-29T04:57:51.875Z,17.80
2019-03-29T04:58:51.833Z,18.10
2019-03-29T04:59:51.845Z,18.80
2019-03-29T05:00:51.815Z,17.80
2019-03-29T05:01:51.822Z,17.80
2019-03-29T05:02:51.831Z,18.20
2019-03-29T05:03:51.793Z,17.90
2019-03-29T05:04:51.790Z,17.20
2019-03-29T05:07:00.735Z,16.10
2019-03-29T05:08:01.557Z,17.30
2019-03-29T05:09:01.445Z,18.50
2019-03-29T05:10:01.437Z,17.70
2019-03-29T05:11:01.448Z,17.80
2019-03-29T05:12:01.415Z,17.90
2019-03-29T05:13:01.434Z,19.00
2019-03-29T05:14:01.408Z,17.90
2019-03-29T05:15:01.421Z,17.90
2019-03-29T05:16:01.378Z,18.00
2019-03-29T05:17:01.369Z,18.80
2019-03-29T05:18:01.355Z,18.00
2019-03-29T05:19:01.337Z,17.50
2019-03-29T05:20:01.362Z,17.70
2019-03-29T05:21:01.352Z,18.50
2019-03-29T05:22:01.302Z,18.40
2019-03-29T05:23:01.298Z,18.30
2019-03-29T05:24:01.285Z,18.90
2019-03-29T05:25:01.292Z,18.50
2019-03-29T05:26:01.299Z,18.90
2019-03-29T05:27:01.289Z,19.30
2019-03-29T05:28:01.250Z,18.70
2019-03-29T05:29:01.231Z,19.00
2019-03-29T05:30:01.211Z,18.30
2019-03-29T05:31:01.213Z,19.00
2019-03-29T05:32:01.226Z,19.10
2019-03-29T05:33:01.197Z,18.90
2019-03-29T05:34:01.180Z,19.80
2019-03-29T05:35:01.164Z,19.50
2019-03-29T05:36:01.158Z,19.50
2019-03-29T05:37:01.169Z,20.00
2019-03-29T05:38:01.134Z,19.70
2019-03-29T05:39:01.126Z,19.10
2019-03-29T05:40:01.112Z,19.10
2019-03-29T05:41:01.104Z,19.90
2019-03-29T05:42:01.118Z,19.60
2019-03-29T05:43:01.089Z,19.60
2019-03-29T05:44:01.070Z,19.90
2019-03-29T05:45:01.060Z,19.90
2019-03-29T05:46:01.046Z,18.80
2019-03-29T05:47:01.049Z,19.60
2019-03-29T05:48:01.035Z,19.60
2019-03-29T05:49:01.013Z,20.00
2019-03-29T05:50:01.027Z,18.60
2019-03-29T05:51:01.158Z,19.10
2019-03-29T05:52:00.999Z,18.60
2019-03-29T05:53:00.967Z,18.10
2019-03-29T05:54:00.970Z,17.90
2019-03-29T05:55:00.977Z,17.90
2019-03-29T05:56:00.938Z,18.70
2019-03-29T05:57:01.008Z,17.90
2019-03-29T05:58:00.915Z,17.80
2019-03-29T05:59:00.894Z,18.30
2019-03-29T06:00:00.893Z,18.20
2019-03-29T06:01:00.881Z,17.10
2019-03-29T06:02:00.885Z,17.20
2019-03-29T06:03:00.884Z,18.10
2019-03-29T06:04:00.874Z,16.70
2019-03-29T06:05:00.846Z,17.10
2019-03-29T06:06:00.835Z,17.40
2019-03-29T06:07:00.816Z,17.00
2019-03-29T06:08:00.811Z,16.60
2019-03-29T06:09:00.832Z,16.30
2019-03-29T06:10:00.784Z,16.20
2019-03-29T06:11:00.766Z,16.10
2019-03-29T06:12:00.763Z,16.30
2019-03-29T06:13:00.748Z,15.90
2019-03-29T06:14:00.768Z,16.10
2019-03-29T06:15:00.743Z,16.60
2019-03-29T06:16:00.743Z,16.10
2019-03-29T06:17:00.713Z,15.80
2019-03-29T06:18:00.698Z,16.10
2019-03-29T06:19:00.681Z,15.70
2019-03-29T06:20:00.676Z,15.40
2019-03-29T06:21:00.697Z,15.60
2019-03-29T06:22:00.651Z,15.90
2019-03-29T06:23:00.638Z,15.00
2019-03-29T06:24:00.629Z,15.00
2019-03-29T06:25:00.617Z,14.90
2019-03-29T06:26:00.643Z,15.10
2019-03-29T06:27:00.603Z,14.40
2019-03-29T06:28:00.641Z,15.50
2019-03-29T06:29:00.602Z,14.60
2019-03-29T06:30:00.610Z,15.20
2019-03-29T06:31:00.557Z,14.40
2019-03-29T06:32:00.556Z,14.60
2019-03-29T06:33:00.527Z,14.60
2019-03-29T06:34:00.544Z,14.20
2019-03-29T06:35:00.518Z,14.00
2019-03-29T06:36:00.618Z,14.40
2019-03-29T06:37:00.532Z,14.20
2019-03-29T06:38:00.480Z,13.80
2019-03-29T06:39:00.469Z,14.10
2019-03-29T06:40:00.449Z,13.40
2019-03-29T06:41:03.323Z,14.20
2019-03-29T06:42:00.466Z,14.40
2019-03-29T06:43:00.419Z,13.30
2019-03-29T06:44:00.470Z,13.30
2019-03-29T06:45:00.443Z,13.30
2019-03-29T06:46:00.414Z,13.00
2019-03-29T06:47:00.435Z,13.60
2019-03-29T06:48:00.396Z,13.50
2019-03-29T06:49:01.218Z,13.10
2019-03-29T06:50:00.725Z,13.30
2019-03-29T06:51:00.401Z,13.90
2019-03-29T06:52:00.538Z,13.70
2019-03-29T06:53:00.472Z,12.60
2019-03-29T06:54:00.424Z,12.90
2019-03-29T06:55:00.468Z,13.10
2019-03-29T06:56:00.292Z,13.40
2019-03-29T06:57:00.286Z,13.20
2019-03-29T06:58:00.255Z,13.00
2019-03-29T06:59:00.273Z,13.50
2019-03-29T07:00:00.346Z,12.60
2019-03-29T07:01:00.263Z,13.20
2019-03-29T07:02:00.221Z,13.50
2019-03-29T07:03:00.232Z,12.50
2019-03-29T07:04:00.209Z,13.20
2019-03-29T07:05:00.480Z,12.70
2019-03-29T07:06:00.179Z,12.30
2019-03-29T07:08:09.358Z,10.50
2019-03-29T07:09:10.375Z,12.60
2019-03-29T07:10:10.340Z,12.70
2019-03-29T07:11:17.279Z,12.70
2019-03-29T07:12:10.311Z,12.40
2019-03-29T07:13:10.307Z,12.30
2019-03-29T07:14:12.404Z,12.50
2019-03-29T07:15:10.292Z,12.40
2019-03-29T07:16:10.274Z,12.60
2019-03-29T07:17:10.558Z,12.90
2019-03-29T07:18:10.244Z,12.20
2019-03-29T07:19:10.263Z,12.60
2019-03-29T07:20:10.226Z,12.10
2019-03-29T07:21:20.825Z,12.90
2019-03-29T07:22:10.208Z,12.90
2019-03-29T07:23:10.199Z,12.10
2019-03-29T07:24:10.205Z,12.40
2019-03-29T07:25:10.167Z,11.40
2019-03-29T07:26:10.199Z,12.00
2019-03-29T07:27:10.157Z,12.10
2019-03-29T07:28:10.157Z,11.80
2019-03-29T07:29:10.139Z,12.30
2019-03-29T07:30:10.108Z,12.60
2019-03-29T07:31:10.106Z,12.10
2019-03-29T07:32:10.102Z,12.70
2019-03-29T07:33:10.076Z,12.10
2019-03-29T07:34:10.087Z,12.70
2019-03-29T07:35:10.059Z,12.60
2019-03-29T07:36:10.043Z,11.40
2019-03-29T07:37:10.042Z,11.90
2019-03-29T07:38:10.030Z,12.60
2019-03-29T07:39:10.046Z,12.20
2019-03-29T07:40:10.112Z,12.10
2019-03-29T07:41:09.992Z,12.10
2019-03-29T07:42:09.990Z,12.30
2019-03-29T07:43:09.967Z,12.50
2019-03-29T07:44:09.976Z,11.80
2019-03-29T07:45:10.464Z,12.10
2019-03-29T07:46:09.970Z,12.60
2019-03-29T07:47:09.929Z,12.60
2019-03-29T07:48:09.915Z,11.90
2019-03-29T07:49:10.251Z,12.40
2019-03-29T07:50:09.891Z,12.90
2019-03-29T07:51:09.878Z,13.10
2019-03-29T07:52:09.873Z,12.40
2019-03-29T07:53:09.849Z,12.60
2019-03-29T07:54:09.897Z,12.10
2019-03-29T07:55:09.862Z,13.20
2019-03-29T07:56:09.840Z,13.10
2019-03-29T07:57:09.819Z,11.70
2019-03-29T07:58:09.837Z,12.00
2019-03-29T07:59:09.949Z,12.20
2019-03-29T08:00:10.295Z,12.50
2019-03-29T08:01:10.099Z,12.90
2019-03-29T08:02:09.784Z,12.80
2019-03-29T08:03:09.898Z,12.20
2019-03-29T08:04:09.746Z,13.00
2019-03-29T08:05:09.786Z,12.40
2019-03-29T08:06:09.734Z,12.20
2019-03-29T08:07:09.724Z,12.40
2019-03-29T08:08:23.287Z,12.70
2019-03-29T08:09:21.606Z,11.40
2019-03-29T08:10:18.953Z,12.30
2019-03-29T08:11:09.671Z,12.30
2019-03-29T08:12:09.670Z,12.20
2019-03-29T08:13:09.681Z,11.80
2019-03-29T08:14:09.631Z,12.20
2019-03-29T08:15:10.170Z,12.20
2019-03-29T08:16:09.608Z,12.40
2019-03-29T08:17:09.601Z,12.10
2019-03-29T08:18:09.610Z,11.70
2019-03-29T08:19:09.584Z,12.50
2019-03-29T08:20:37.614Z,12.20
2019-03-29T08:21:09.561Z,11.70
2019-03-29T08:22:09.596Z,12.00
2019-03-29T08:23:09.529Z,12.20
2019-03-29T08:24:09.524Z,12.30
2019-03-29T08:25:09.554Z,11.40
2019-03-29T08:26:09.496Z,12.10
2019-03-29T08:27:09.483Z,12.20
2019-03-29T08:28:09.499Z,11.30
2019-03-29T08:29:09.464Z,11.70
2019-03-29T08:30:09.472Z,11.80
2019-03-29T08:31:09.441Z,12.20
2019-03-29T08:32:09.447Z,12.00
2019-03-29T08:33:09.419Z,12.10
2019-03-29T08:34:09.413Z,11.70
2019-03-29T08:35:09.412Z,11.20
2019-03-29T08:36:09.385Z,11.50
2019-03-29T08:37:09.379Z,11.50
2019-03-29T08:38:10.616Z,10.90
2019-03-29T08:39:10.344Z,11.50
2019-03-29T08:40:09.387Z,11.60
2019-03-29T08:41:09.333Z,12.70
2019-03-29T08:42:09.318Z,11.70
2019-03-29T08:43:09.304Z,13.20
2019-03-29T08:44:11.855Z,12.10
2019-03-29T08:45:09.333Z,11.80
2019-03-29T08:46:09.278Z,11.40
2019-03-29T08:47:09.399Z,11.10
2019-03-29T08:48:09.257Z,10.70
2019-03-29T08:49:09.519Z,11.30
2019-03-29T08:50:09.259Z,10.90
2019-03-29T08:51:09.215Z,11.00
2019-03-29T08:52:09.209Z,10.80
2019-03-29T08:53:09.201Z,11.70
2019-03-29T08:54:09.188Z,10.80
2019-03-29T08:55:09.214Z,10.80
2019-03-29T08:56:09.162Z,10.90
2019-03-29T08:57:10.708Z,10.80
2019-03-29T08:58:09.143Z,11.20
2019-03-29T08:59:09.126Z,12.20
2019-03-29T09:00:09.133Z,12.20
2019-03-29T09:01:09.103Z,11.40
2019-03-29T09:02:09.107Z,11.70
2019-03-29T09:03:09.093Z,12.20
2019-03-29T09:04:09.080Z,11.90
2019-03-29T09:05:09.095Z,11.40
2019-03-29T09:06:09.056Z,11.10
2019-03-29T09:07:09.038Z,11.80
2019-03-29T09:09:18.252Z,9.80
2019-03-29T09:10:19.530Z,10.80
2019-03-29T09:11:19.200Z,10.90
2019-03-29T09:12:19.187Z,11.40
2019-03-29T09:13:19.231Z,11.50
2019-03-29T09:14:19.167Z,11.20
2019-03-29T09:15:19.174Z,11.30
2019-03-29T09:16:19.168Z,10.10
2019-03-29T09:17:19.131Z,10.20
2019-03-29T09:18:19.128Z,10.80
2019-03-29T09:19:19.118Z,11.40
2019-03-29T09:20:19.102Z,11.00
2019-03-29T09:21:19.113Z,10.50
2019-03-29T09:22:19.080Z,10.90
2019-03-29T09:23:19.071Z,10.50
2019-03-29T09:24:22.383Z,10.70
2019-03-29T09:25:21.123Z,10.40
2019-03-29T09:26:19.062Z,11.20
2019-03-29T09:27:19.028Z,11.80
2019-03-29T09:28:19.028Z,11.00
2019-03-29T09:29:19.035Z,11.10
2019-03-29T09:30:18.992Z,10.80
2019-03-29T09:31:19.003Z,10.50
2019-03-29T09:32:18.971Z,11.00
2019-03-29T09:33:18.960Z,10.70
2019-03-29T09:34:18.947Z,11.20
2019-03-29T09:35:18.948Z,11.20
2019-03-29T09:36:18.953Z,10.50
2019-03-29T09:37:18.925Z,10.70
2019-03-29T09:38:18.907Z,11.20
2019-03-29T09:39:18.895Z,10.60
2019-03-29T09:40:19.010Z,10.90
2019-03-29T09:41:18.890Z,11.20
2019-03-29T09:42:28.798Z,11.40
2019-03-29T09:43:18.851Z,10.70
2019-03-29T09:44:18.841Z,10.40
2019-03-29T09:45:18.843Z,10.70
2019-03-29T09:46:18.837Z,10.60
2019-03-29T09:47:18.826Z,9.90
2019-03-29T09:48:18.796Z,10.40
2019-03-29T09:49:18.863Z,10.60
2019-03-29T09:50:18.772Z,10.40
2019-03-29T09:51:18.788Z,10.70
2019-03-29T09:52:18.790Z,10.60
2019-03-29T09:53:18.778Z,11.40
2019-03-29T09:54:20.380Z,10.80
2019-03-29T09:55:19.275Z,10.70
2019-03-29T09:56:18.729Z,11.10
2019-03-29T09:57:18.711Z,11.10
2019-03-29T09:58:18.745Z,10.70
2019-03-29T09:59:18.678Z,10.80
2019-03-29T10:00:23.059Z,11.70
2019-03-29T10:01:20.769Z,10.90
2019-03-29T10:02:18.644Z,10.80
2019-03-29T10:03:18.661Z,11.30
2019-03-29T10:04:18.625Z,10.60
2019-03-29T10:05:20.140Z,10.50
2019-03-29T10:06:18.619Z,11.30
2019-03-29T10:07:18.601Z,10.60
2019-03-29T10:08:18.578Z,11.20
2019-03-29T10:09:18.676Z,11.30
2019-03-29T10:10:18.553Z,11.70
2019-03-29T10:11:21.947Z,11.60
2019-03-29T10:12:18.534Z,11.30
2019-03-29T10:13:18.539Z,11.50
2019-03-29T10:14:18.511Z,10.90
2019-03-29T10:15:18.668Z,11.70
2019-03-29T10:16:18.527Z,11.40
2019-03-29T10:17:18.562Z,11.10
2019-03-29T10:18:18.467Z,11.00
2019-03-29T10:19:18.456Z,11.20
2019-03-29T10:20:18.448Z,11.40
2019-03-29T10:21:18.465Z,12.20
2019-03-29T10:22:18.426Z,11.90
2019-03-29T10:23:18.424Z,12.10
2019-03-29T10:24:18.490Z,13.20
2019-03-29T10:25:20.182Z,12.10
2019-03-29T10:26:18.403Z,12.80
2019-03-29T10:27:19.238Z,12.60
2019-03-29T10:28:18.365Z,12.50
2019-03-29T10:29:18.349Z,12.70
2019-03-29T10:30:18.376Z,12.70
2019-03-29T10:31:31.530Z,13.20
2019-03-29T10:32:18.316Z,12.80
2019-03-29T10:33:18.309Z,12.50
2019-03-29T10:34:18.294Z,13.10
2019-03-29T10:35:18.290Z,12.50
2019-03-29T10:36:18.289Z,12.80
2019-03-29T10:37:18.262Z,12.50
2019-03-29T10:38:18.737Z,12.60
2019-03-29T10:39:18.377Z,12.70
2019-03-29T10:40:21.569Z,12.00
2019-03-29T10:41:18.235Z,12.40
2019-03-29T10:42:18.215Z,11.70
2019-03-29T10:43:18.192Z,13.00
2019-03-29T10:44:18.202Z,12.70
2019-03-29T10:45:18.213Z,12.90
2019-03-29T10:46:18.179Z,12.60
2019-03-29T10:47:18.244Z,12.50
2019-03-29T10:48:18.138Z,12.90
2019-03-29T10:49:18.140Z,12.80
2019-03-29T10:50:18.517Z,13.60
2019-03-29T10:51:18.129Z,11.60
2019-03-29T10:52:18.107Z,12.80
2019-03-29T10:53:18.104Z,12.90
2019-03-29T10:54:18.072Z,12.30
2019-03-29T10:55:18.063Z,12.80
2019-03-29T10:56:18.092Z,13.10
2019-03-29T10:57:18.037Z,12.60
2019-03-29T10:58:18.029Z,12.90
2019-03-29T10:59:27.219Z,12.90
2019-03-29T11:00:21.618Z,12.90
2019-03-29T11:01:18.020Z,13.50
2019-03-29T11:02:18.030Z,13.40
2019-03-29T11:03:17.971Z,13.40
2019-03-29T11:04:17.974Z,12.30
2019-03-29T11:05:17.949Z,12.70
2019-03-29T11:06:17.967Z,12.60
2019-03-29T11:07:17.943Z,12.50
2019-03-29T11:08:17.917Z,13.50
2019-03-29T11:10:27.101Z,13.50
2019-03-29T11:11:28.103Z,13.10
2019-03-29T11:12:28.087Z,12.80
2019-03-29T11:13:28.136Z,13.00
2019-03-29T11:14:28.049Z,12.30
2019-03-29T11:15:28.047Z,13.10
2019-03-29T11:16:28.049Z,12.00
2019-03-29T11:17:28.022Z,12.70
2019-03-29T11:18:28.005Z,11.70
2019-03-29T11:19:28.003Z,11.80
2019-03-29T11:20:27.978Z,12.30
2019-03-29T11:21:28.007Z,12.50
2019-03-29T11:22:27.965Z,12.20
2019-03-29T11:23:27.960Z,11.90
2019-03-29T11:24:27.955Z,12.40
2019-03-29T11:25:27.941Z,12.80
2019-03-29T11:26:27.964Z,12.80
2019-03-29T11:27:27.911Z,12.60
2019-03-29T11:28:27.890Z,12.40
2019-03-29T11:29:27.891Z,12.50
2019-03-29T11:30:41.197Z,12.00
2019-03-29T11:31:27.891Z,12.30
2019-03-29T11:32:27.865Z,12.40
2019-03-29T11:33:27.848Z,13.10
2019-03-29T11:34:27.844Z,12.90
2019-03-29T11:35:27.873Z,13.20
2019-03-29T11:36:28.206Z,13.50
2019-03-29T11:37:27.832Z,12.50
2019-03-29T11:38:27.799Z,13.20
2019-03-29T11:39:27.791Z,14.00
2019-03-29T11:40:27.867Z,13.30
2019-03-29T11:41:27.767Z,12.30
2019-03-29T11:42:27.761Z,12.70
2019-03-29T11:43:27.902Z,11.70
2019-03-29T11:44:30.231Z,12.70
2019-03-29T11:45:27.712Z,12.90
2019-03-29T11:46:27.703Z,12.70
2019-03-29T11:47:27.717Z,12.40
2019-03-29T11:48:29.586Z,12.30
2019-03-29T11:49:27.667Z,12.90
2019-03-29T11:50:29.198Z,13.60
2019-03-29T11:51:27.646Z,13.00
2019-03-29T11:52:27.669Z,12.90
2019-03-29T11:53:27.627Z,12.80
2019-03-29T11:54:27.624Z,13.20
2019-03-29T11:55:27.623Z,12.80
2019-03-29T11:56:27.635Z,11.90
2019-03-29T11:57:27.609Z,13.20
2019-03-29T11:58:27.599Z,12.40
2019-03-29T11:59:27.573Z,12.10
2019-03-29T12:00:27.577Z,12.50
2019-03-29T12:01:27.535Z,11.90
2019-03-29T12:02:31.471Z,12.20
2019-03-29T12:03:27.603Z,12.20
2019-03-29T12:04:27.536Z,12.00
2019-03-29T12:05:27.542Z,12.50
2019-03-29T12:06:27.530Z,12.00
2019-03-29T12:07:27.493Z,12.90
2019-03-29T12:08:27.466Z,13.50
2019-03-29T12:09:27.463Z,12.90
2019-03-29T12:10:27.589Z,13.20
2019-03-29T12:11:27.488Z,13.00
2019-03-29T12:12:27.822Z,12.10
2019-03-29T12:13:40.364Z,12.60
2019-03-29T12:14:28.458Z,12.80
2019-03-29T12:15:27.415Z,12.50
2019-03-29T12:16:27.481Z,12.70
2019-03-29T12:17:27.401Z,12.70
2019-03-29T12:18:27.373Z,12.40
2019-03-29T12:19:27.339Z,11.90
2019-03-29T12:20:27.353Z,12.00
2019-03-29T12:21:27.322Z,12.70
2019-03-29T12:22:27.429Z,12.70
2019-03-29T12:23:27.317Z,12.60
2019-03-29T12:24:27.349Z,12.20
2019-03-29T12:25:27.297Z,11.90
2019-03-29T12:26:27.284Z,12.00
2019-03-29T12:27:27.289Z,12.10
2019-03-29T12:28:27.268Z,11.70
2019-03-29T12:29:27.243Z,12.30
2019-03-29T12:30:31.947Z,12.30
2019-03-29T12:31:27.212Z,13.00
2019-03-29T12:32:27.221Z,12.60
2019-03-29T12:33:27.186Z,11.90
2019-03-29T12:34:27.170Z,12.30
2019-03-29T12:35:27.169Z,12.40
2019-03-29T12:36:27.171Z,13.30
2019-03-29T12:37:27.171Z,12.40
2019-03-29T12:38:27.140Z,12.30
2019-03-29T12:39:27.116Z,12.40
2019-03-29T12:40:27.111Z,12.10
2019-03-29T12:41:27.101Z,12.80
2019-03-29T12:42:27.117Z,12.50
2019-03-29T12:43:27.084Z,13.00
2019-03-29T12:44:27.107Z,12.80
2019-03-29T12:45:27.073Z,12.90
2019-03-29T12:46:27.046Z,12.70
2019-03-29T12:47:27.069Z,12.70
2019-03-29T12:48:27.018Z,13.90
2019-03-29T12:49:27.024Z,13.60
2019-03-29T12:50:27.031Z,12.50
2019-03-29T12:51:26.992Z,13.30
2019-03-29T12:52:26.989Z,13.40
2019-03-29T12:53:27.001Z,12.40
2019-03-29T12:54:27.078Z,12.50
2019-03-29T12:55:26.974Z,12.70
2019-03-29T12:56:26.942Z,12.00
2019-03-29T12:57:26.957Z,13.10
2019-03-29T12:58:26.945Z,12.70
2019-03-29T12:59:26.912Z,12.80